createdAt,value
2019-02-26T00:04:14.849Z,3.70
2019-02-26T00:06:47.190Z,4.83
2019-02-26T00:09:18.165Z,4.67
2019-02-26T00:11:44.355Z,4.37
2019-02-26T00:14:15.521Z,4.80
2019-02-26T00:19:17.234Z,4.63
2019-02-26T00:21:48.058Z,4.43
2019-02-26T00:24:16.830Z,4.50
2019-02-26T00:26:46.847Z,5.00
2019-02-26T00:29:15.530Z,5.10
2019-02-26T00:31:46.133Z,5.33
2019-02-26T00:34:16.884Z,5.90
2019-02-26T00:36:45.197Z,5.00
2019-02-26T00:39:13.884Z,5.70
2019-02-26T00:41:42.531Z,4.87
2019-02-26T00:44:32.207Z,4.97
2019-02-26T00:47:02.708Z,4.23
2019-02-26T00:49:31.171Z,6.07
2019-02-26T00:51:59.859Z,5.33
2019-02-26T00:54:29.224Z,5.03
2019-02-26T00:57:01.091Z,5.80
2019-02-26T00:59:29.366Z,5.87
2019-02-26T01:01:59.370Z,5.20
2019-02-26T01:04:28.575Z,5.50
2019-02-26T01:06:59.046Z,4.80
2019-02-26T01:09:29.466Z,4.50
2019-02-26T01:11:58.430Z,5.20
2019-02-26T01:14:27.114Z,5.00
2019-02-26T01:16:55.800Z,5.97
2019-02-26T01:19:24.448Z,5.67
2019-02-26T01:21:53.246Z,6.13
2019-02-26T01:24:24.333Z,5.47
2019-02-26T01:26:52.393Z,5.80
2019-02-26T01:30:03.296Z,5.67
2019-02-26T01:32:31.254Z,5.83
2019-02-26T01:35:00.953Z,5.50
2019-02-26T01:37:32.046Z,4.50
2019-02-26T01:40:00.558Z,5.10
2019-02-26T01:42:31.238Z,4.30
2019-02-26T01:44:59.707Z,5.33
2019-02-26T01:47:48.324Z,4.40
2019-02-26T01:50:18.033Z,5.27
2019-02-26T01:52:46.713Z,5.47
2019-02-26T01:55:16.176Z,4.47
2019-02-26T01:57:45.787Z,5.23
2019-02-26T02:00:55.591Z,4.83
2019-02-26T02:03:25.521Z,4.93
2019-02-26T02:05:54.955Z,4.27
2019-02-26T02:11:11.378Z,4.27
2019-02-26T02:14:01.906Z,4.57
2019-02-26T02:16:31.461Z,4.30
2019-02-26T02:19:00.136Z,3.77
2019-02-26T03:16:05.923Z,4.43
2019-02-26T03:18:34.676Z,5.13
2019-02-26T03:21:04.803Z,4.43
2019-02-26T03:23:36.889Z,4.53
2019-02-26T03:28:59.546Z,4.57
2019-02-26T03:31:31.001Z,5.03
2019-02-26T03:34:04.104Z,4.00
2019-02-26T03:36:31.392Z,4.90
2019-02-26T03:39:00.791Z,5.07
2019-02-26T03:42:10.659Z,4.47
2019-02-26T03:44:39.965Z,5.27
2019-02-26T03:47:08.662Z,5.53
2019-02-26T03:49:41.714Z,4.50
2019-02-26T03:52:07.801Z,5.53
2019-02-26T03:54:37.856Z,5.60
2019-02-26T03:57:06.855Z,5.03
2019-02-26T03:59:35.561Z,5.07
2019-02-26T04:02:04.255Z,5.60
2019-02-26T04:04:33.725Z,5.67
2019-02-26T04:07:04.937Z,5.63
2019-02-26T04:09:33.731Z,6.87
2019-02-26T04:12:02.422Z,5.67
2019-02-26T04:14:31.133Z,5.17
2019-02-26T04:17:01.649Z,5.67
2019-02-26T04:19:30.291Z,6.13
2019-02-26T04:22:42.263Z,5.27
2019-02-26T04:25:49.497Z,5.77
2019-02-26T04:28:58.173Z,4.97
2019-02-26T04:32:06.718Z,4.70
2019-02-26T04:34:59.175Z,5.50
2019-02-26T04:38:06.177Z,4.77
2019-02-26T04:41:15.921Z,5.23
2019-02-26T04:44:26.833Z,5.27
2019-02-26T04:47:34.472Z,5.30
2019-02-26T04:50:06.198Z,6.17
2019-02-26T04:52:35.780Z,6.30
2019-02-26T04:58:14.811Z,6.47
2019-02-26T05:00:42.561Z,6.00
2019-02-26T05:03:14.198Z,5.70
2019-02-26T05:05:41.728Z,5.27
2019-02-26T05:08:12.320Z,5.80
2019-02-26T05:10:40.788Z,6.53
2019-02-26T05:13:09.842Z,6.90
2019-02-26T05:15:39.741Z,6.30
2019-02-26T05:18:08.332Z,5.90
2019-02-26T05:20:39.272Z,6.20
2019-02-26T05:23:07.342Z,4.90
2019-02-26T05:25:37.372Z,6.13
2019-02-26T05:28:09.335Z,5.57
2019-02-26T05:30:37.808Z,6.90
2019-02-26T05:33:07.178Z,6.30
2019-02-26T05:35:37.851Z,5.80
2019-02-26T05:38:07.699Z,6.47
2019-02-26T05:40:37.806Z,6.30
2019-02-26T05:43:07.082Z,5.73
2019-02-26T05:45:35.775Z,5.67
2019-02-26T05:48:05.202Z,5.97
2019-02-26T05:50:35.541Z,5.83
2019-02-26T05:53:07.070Z,7.13
2019-02-26T05:55:35.066Z,6.03
2019-02-26T05:58:03.810Z,5.87
2019-02-26T06:00:33.416Z,5.40
2019-02-26T06:03:03.591Z,6.50
2019-02-26T06:05:32.610Z,5.40
2019-02-26T06:08:20.449Z,7.03
2019-02-26T06:10:49.104Z,5.80
2019-02-26T06:13:58.919Z,5.67
2019-02-26T06:16:28.963Z,6.73
2019-02-26T06:18:58.498Z,5.20
2019-02-26T06:21:27.181Z,5.77
2019-02-26T06:24:36.270Z,6.30
2019-02-26T06:27:08.611Z,7.63
2019-02-26T06:29:37.426Z,9.43
2019-02-26T06:32:29.918Z,11.47
2019-02-26T06:34:56.500Z,10.43
2019-02-26T06:37:25.186Z,10.57
2019-02-26T06:42:30.683Z,11.23
2019-02-26T06:44:58.970Z,9.93
2019-02-26T06:47:29.289Z,10.63
2019-02-26T06:49:57.985Z,10.30
2019-02-26T06:52:47.845Z,9.00
2019-02-26T06:55:16.303Z,8.73
2019-02-26T06:58:24.722Z,8.30
2019-02-26T07:00:55.451Z,8.60
2019-02-26T07:03:24.748Z,8.03
2019-02-26T07:05:54.403Z,7.53
2019-02-26T07:08:24.238Z,6.23
2019-02-26T07:10:53.545Z,6.80
2019-02-26T07:13:22.212Z,8.27
2019-02-26T07:16:10.156Z,6.97
2019-02-26T07:18:38.790Z,7.30
2019-02-26T07:21:07.430Z,5.63
2019-02-26T07:23:38.209Z,6.70
2019-02-26T07:26:06.544Z,6.67
2019-02-26T07:29:17.552Z,6.00
2019-02-26T07:31:47.227Z,6.03
2019-02-26T07:34:18.142Z,6.80
2019-02-26T07:36:47.952Z,6.03
2019-02-26T07:39:18.260Z,4.87
2019-02-26T07:41:49.226Z,5.07
2019-02-26T07:44:18.631Z,3.93
2019-02-26T07:46:48.031Z,5.87
2019-02-26T07:49:16.811Z,4.73
2019-02-26T07:51:45.394Z,4.90
2019-02-26T07:54:14.109Z,5.00
2019-02-26T07:56:42.728Z,4.23
2019-02-26T07:59:12.575Z,4.23
2019-02-26T08:01:42.959Z,4.30
2019-02-26T08:04:13.501Z,4.33
2019-02-26T08:06:42.804Z,4.53
2019-02-26T08:09:14.001Z,4.40
2019-02-26T08:11:43.798Z,5.17
2019-02-26T08:14:14.357Z,4.53
2019-02-26T08:16:42.778Z,5.17
2019-02-26T08:19:30.681Z,3.87
2019-02-26T08:21:59.390Z,3.23
2019-02-26T08:24:48.582Z,5.40
2019-02-26T08:27:17.642Z,6.00
2019-02-26T08:29:46.281Z,5.43
2019-02-26T08:32:18.164Z,5.83
2019-02-26T08:35:04.611Z,6.57
2019-02-26T08:37:33.282Z,8.03
2019-02-26T08:40:01.965Z,7.77
2019-02-26T08:42:30.565Z,6.90
2019-02-26T08:44:59.273Z,7.03
2019-02-26T08:47:27.945Z,8.93
2019-02-26T08:49:58.820Z,6.80
2019-02-26T08:52:29.279Z,6.53
2019-02-26T08:54:57.479Z,6.30
2019-02-26T08:57:26.136Z,5.50
2019-02-26T08:59:54.835Z,6.63
2019-02-26T09:02:23.529Z,7.23
2019-02-26T09:04:52.184Z,7.27
2019-02-26T09:07:21.853Z,7.80
2019-02-26T09:09:54.338Z,7.60
2019-02-26T09:12:22.411Z,6.63
2019-02-26T09:14:52.068Z,7.33
2019-02-26T09:17:42.053Z,6.70
2019-02-26T09:20:50.146Z,6.43
2019-02-26T09:23:20.977Z,6.73
2019-02-26T09:25:54.087Z,6.93
2019-02-26T09:28:20.069Z,6.73
2019-02-26T09:31:11.521Z,10.30
2019-02-26T09:33:40.925Z,7.23
2019-02-26T09:36:12.657Z,6.20
2019-02-26T09:38:41.954Z,7.60
2019-02-26T09:41:11.774Z,6.73
2019-02-26T09:43:43.178Z,6.47
2019-02-26T09:46:31.761Z,6.37
2019-02-26T09:49:03.139Z,6.00
2019-02-26T09:51:32.987Z,7.07
2019-02-26T09:54:02.259Z,5.73
2019-02-26T09:56:30.955Z,4.70
2019-02-26T09:58:59.651Z,5.67
2019-02-26T10:01:30.169Z,5.37
2019-02-26T10:04:00.843Z,5.33
2019-02-26T10:06:29.307Z,6.07
2019-02-26T10:08:57.931Z,6.27
2019-02-26T10:11:27.996Z,5.57
2019-02-26T10:13:57.083Z,5.47
2019-02-26T10:16:28.114Z,5.30
2019-02-26T10:18:56.862Z,5.43
2019-02-26T10:21:26.732Z,4.97
2019-02-26T10:23:56.906Z,4.80
2019-02-26T10:26:26.410Z,5.17
2019-02-26T10:29:02.330Z,5.10
2019-02-26T10:31:27.594Z,5.67
2019-02-26T10:33:57.005Z,4.67
2019-02-26T10:36:25.654Z,4.93
2019-02-26T10:38:55.096Z,5.50
2019-02-26T10:41:24.669Z,4.90
2019-02-26T10:43:53.423Z,4.70
2019-02-26T10:46:42.601Z,4.63
2019-02-26T10:49:12.456Z,4.50
2019-02-26T10:51:42.672Z,4.70
2019-02-26T10:54:17.653Z,4.40
2019-02-26T10:56:44.883Z,4.13
2019-02-26T10:59:15.806Z,3.97
2019-02-26T11:02:25.816Z,4.00
2019-02-26T11:04:55.508Z,3.30
2019-02-26T11:07:26.432Z,3.70
2019-02-26T11:09:56.248Z,3.73
2019-02-26T11:12:27.917Z,4.00
2019-02-26T11:14:56.722Z,2.57
2019-02-26T11:17:46.247Z,3.03
2019-02-26T11:20:58.424Z,2.50
2019-02-26T11:23:30.999Z,2.57
2019-02-26T11:25:56.658Z,2.40
2019-02-26T11:28:29.767Z,2.83
2019-02-26T11:30:56.685Z,2.50
2019-02-26T11:33:45.411Z,2.50
2019-02-26T11:36:15.735Z,2.80
2019-02-26T11:38:46.923Z,2.40
2019-02-26T11:41:15.131Z,2.40
2019-02-26T11:46:54.322Z,2.20
2019-02-26T11:49:22.487Z,2.33
2019-02-26T11:51:51.163Z,2.77
2019-02-26T11:54:19.800Z,4.07
2019-02-26T11:56:49.796Z,4.27
2019-02-26T11:59:19.489Z,4.60
2019-02-26T12:01:49.407Z,6.73
2019-02-26T12:04:18.052Z,7.37
2019-02-26T12:07:07.502Z,8.00
2019-02-26T12:09:40.300Z,8.57
2019-02-26T12:12:09.206Z,7.57
2019-02-26T12:14:40.060Z,8.13
2019-02-26T12:17:07.813Z,6.37
2019-02-26T12:20:17.689Z,6.43
2019-02-26T12:22:48.001Z,5.87
2019-02-26T12:25:59.307Z,5.40
2019-02-26T12:28:28.305Z,3.97
2019-02-26T12:30:58.615Z,3.47
2019-02-26T12:33:32.183Z,3.40
2019-02-26T12:35:59.534Z,4.83
2019-02-26T12:38:29.502Z,2.93
2019-02-26T12:40:58.234Z,2.70
2019-02-26T12:43:26.948Z,2.10
2019-02-26T12:45:58.830Z,1.50
2019-02-26T12:48:26.018Z,1.83
2019-02-26T12:50:55.578Z,1.30
2019-02-26T12:53:25.100Z,1.13
2019-02-26T12:55:54.730Z,1.30
2019-02-26T12:58:27.579Z,1.50
2019-02-26T13:00:54.669Z,1.63
2019-02-26T13:03:23.412Z,1.67
2019-02-26T13:05:52.060Z,2.00
2019-02-26T13:08:24.129Z,1.70
2019-02-26T13:10:55.585Z,1.57
2019-02-26T13:13:21.583Z,2.40
2019-02-26T13:15:51.046Z,1.10
2019-02-26T13:21:11.048Z,1.00
2019-02-26T13:23:38.754Z,0.87
2019-02-26T13:29:02.645Z,0.90
2019-02-26T13:31:35.730Z,0.80
2019-02-26T13:34:01.868Z,0.67
2019-02-26T13:36:30.576Z,0.93
2019-02-26T13:38:59.250Z,0.90
2019-02-26T13:41:30.339Z,1.00
2019-02-26T13:43:58.338Z,0.80
2019-02-26T13:47:06.822Z,0.63
2019-02-26T13:49:35.500Z,0.80
2019-02-26T13:52:04.224Z,0.70
2019-02-26T13:54:32.936Z,0.90
2019-02-26T13:57:20.813Z,0.80
2019-02-26T13:59:51.176Z,0.63
2019-02-26T14:02:19.855Z,0.90
2019-02-26T14:04:48.563Z,1.17
2019-02-26T14:07:17.270Z,1.17
2019-02-26T14:09:45.963Z,0.87
2019-02-26T14:12:16.396Z,1.37
2019-02-26T14:14:45.097Z,0.83
2019-02-26T14:17:32.938Z,1.07
2019-02-26T14:20:01.631Z,1.23
2019-02-26T14:22:30.285Z,1.07
2019-02-26T14:24:58.939Z,1.23
2019-02-26T14:27:27.702Z,1.33
2019-02-26T14:29:56.358Z,1.87
2019-02-26T14:32:26.797Z,1.70
2019-02-26T14:34:55.364Z,1.87
2019-02-26T14:37:24.010Z,2.00
2019-02-26T14:39:52.772Z,2.00
2019-02-26T14:42:21.756Z,1.50
2019-02-26T14:44:51.915Z,2.27
2019-02-26T14:50:48.066Z,2.20
2019-02-26T14:53:16.767Z,2.70
2019-02-26T14:55:45.405Z,2.73
2019-02-26T14:58:14.087Z,2.57
2019-02-26T15:00:42.821Z,5.40
2019-02-26T15:03:11.516Z,2.90
2019-02-26T15:05:40.284Z,3.23
2019-02-26T15:08:09.645Z,3.77
2019-02-26T15:10:39.425Z,3.37
2019-02-26T15:13:08.167Z,2.37
2019-02-26T15:15:36.953Z,2.30
2019-02-26T15:18:05.609Z,2.33
2019-02-26T15:20:34.252Z,1.80
2019-02-26T15:25:40.339Z,1.80
2019-02-26T15:28:09.053Z,2.07
2019-02-26T15:30:37.749Z,2.40
2019-02-26T15:33:10.957Z,2.70
2019-02-26T15:35:36.822Z,2.27
2019-02-26T15:38:05.551Z,2.43
2019-02-26T15:40:34.253Z,1.83
2019-02-26T15:43:02.963Z,1.97
2019-02-26T15:45:33.460Z,2.17
2019-02-26T15:48:04.000Z,1.80
2019-02-26T15:50:32.529Z,1.60
2019-02-26T15:53:01.279Z,1.77
2019-02-26T15:56:09.810Z,2.30
2019-02-26T15:58:38.494Z,1.63
2019-02-26T16:01:46.961Z,1.73
2019-02-26T16:04:15.743Z,1.20
2019-02-26T16:06:44.461Z,1.60
2019-02-26T16:09:15.471Z,1.40
2019-02-26T16:11:45.255Z,1.83
2019-02-26T16:14:14.005Z,1.70
2019-02-26T16:16:42.670Z,1.50
2019-02-26T16:19:11.373Z,1.33
2019-02-26T16:21:59.309Z,1.73
2019-02-26T16:24:47.238Z,1.70
2019-02-26T16:27:19.784Z,2.27
2019-02-26T16:29:48.138Z,2.10
2019-02-26T16:32:16.871Z,2.37
2019-02-26T16:37:52.563Z,2.17
2019-02-26T16:43:00.475Z,2.10
2019-02-26T16:45:36.532Z,2.27
2019-02-26T16:48:05.366Z,2.40
2019-02-26T16:50:34.053Z,2.77
2019-02-26T16:53:02.826Z,2.83
2019-02-26T16:55:33.389Z,2.80
2019-02-26T16:58:03.221Z,3.67
2019-02-26T17:01:12.230Z,2.90
2019-02-26T17:03:40.946Z,3.30
2019-02-26T17:06:09.842Z,3.50
2019-02-26T17:11:14.566Z,3.40
2019-02-26T17:13:44.124Z,3.70
2019-02-26T17:16:13.691Z,4.00
2019-02-26T17:18:42.803Z,4.20
2019-02-26T17:21:12.798Z,4.00
2019-02-26T17:23:41.587Z,4.17
2019-02-26T17:26:10.296Z,4.30
2019-02-26T17:28:39.105Z,5.23
2019-02-26T17:31:47.702Z,4.73
2019-02-26T17:34:20.060Z,4.70
2019-02-26T17:36:46.983Z,4.37
2019-02-26T17:39:15.694Z,4.83
2019-02-26T17:41:44.829Z,4.40
2019-02-26T17:44:14.860Z,5.07
2019-02-26T17:46:43.574Z,4.30
2019-02-26T17:49:12.369Z,4.07
2019-02-26T17:51:40.979Z,5.23
2019-02-26T17:54:09.683Z,5.33
2019-02-26T17:56:38.247Z,4.40
2019-02-26T17:59:07.046Z,6.27
2019-02-26T18:01:35.794Z,5.97
2019-02-26T18:04:04.522Z,6.43
2019-02-26T18:06:33.164Z,6.93
2019-02-26T18:09:02.037Z,7.40
2019-02-26T18:11:30.718Z,6.67
2019-02-26T18:14:00.206Z,7.03
2019-02-26T18:16:31.711Z,6.87
2019-02-26T18:19:00.407Z,7.10
2019-02-26T18:21:29.137Z,5.63
2019-02-26T18:23:57.797Z,5.90
2019-02-26T18:26:45.613Z,5.40
2019-02-26T18:29:14.315Z,5.10
2019-02-26T18:31:43.021Z,4.50
2019-02-26T18:36:46.001Z,4.50
2019-02-26T18:39:35.256Z,6.13
2019-02-26T18:42:07.621Z,5.30
2019-02-26T18:44:34.343Z,7.97
2019-02-26T18:47:04.821Z,7.80
2019-02-26T18:49:33.546Z,7.07
2019-02-26T18:52:02.255Z,6.73
2019-02-26T18:54:30.945Z,6.87
2019-02-26T18:56:59.676Z,6.70
2019-02-26T19:02:03.566Z,4.60
2019-02-26T19:04:33.242Z,6.03
2019-02-26T19:07:02.061Z,4.27
2019-02-26T19:09:30.716Z,4.60
2019-02-26T19:14:47.082Z,4.10
2019-02-26T19:17:15.730Z,5.50
2019-02-26T19:20:03.667Z,4.73
2019-02-26T19:22:32.451Z,4.07
2019-02-26T19:25:20.416Z,4.97
2019-02-26T19:27:52.796Z,4.30
2019-02-26T19:36:36.735Z,5.33
2019-02-26T19:39:45.279Z,5.10
2019-02-26T19:45:43.877Z,5.70
2019-02-26T19:48:12.301Z,5.73
2019-02-26T19:50:45.431Z,5.80
2019-02-26T19:56:23.379Z,6.20
2019-02-26T20:01:38.544Z,5.17
2019-02-26T20:07:14.264Z,4.73
2019-02-26T20:10:02.202Z,5.00
2019-02-26T20:12:30.964Z,6.20
2019-02-26T20:15:21.741Z,6.67
2019-02-26T20:17:49.723Z,8.90
2019-02-26T20:20:59.666Z,6.37
2019-02-26T20:23:47.666Z,6.90
2019-02-26T20:26:17.026Z,6.00
2019-02-26T20:28:46.920Z,4.73
2019-02-26T20:31:15.718Z,5.07
2019-02-26T20:36:32.188Z,4.80
2019-02-26T20:39:19.972Z,5.70
2019-02-26T20:41:48.735Z,5.80
2019-02-26T20:44:17.421Z,4.70
2019-02-26T20:46:46.419Z,4.63
2019-02-26T20:49:15.226Z,4.30
2019-02-26T20:51:43.958Z,4.70
2019-02-26T20:54:12.749Z,5.77
2019-02-26T20:56:41.462Z,4.50
2019-02-26T20:59:10.232Z,5.37
2019-02-26T21:01:40.161Z,5.50
2019-02-26T21:04:28.446Z,5.13
2019-02-26T21:09:44.900Z,4.80
2019-02-26T21:12:34.739Z,4.70
2019-02-26T21:15:03.151Z,5.70
2019-02-26T21:17:51.007Z,4.57
2019-02-26T21:20:19.657Z,5.47
2019-02-26T21:22:48.345Z,5.60
2019-02-26T21:28:06.536Z,6.17
2019-02-26T21:30:54.576Z,5.63
2019-02-26T21:33:43.145Z,5.97
2019-02-26T21:36:13.541Z,6.30
2019-02-26T21:38:42.334Z,5.53
2019-02-26T21:41:11.049Z,6.00
2019-02-26T21:43:39.732Z,5.90
2019-02-26T21:46:08.459Z,6.07
2019-02-26T21:48:37.273Z,5.60
2019-02-26T21:51:06.880Z,6.17
2019-02-26T21:53:35.707Z,5.07
2019-02-26T21:56:04.471Z,8.23
2019-02-26T21:58:33.705Z,5.90
2019-02-26T22:04:09.436Z,5.17
2019-02-26T22:06:39.910Z,5.07
2019-02-26T22:09:08.994Z,5.13
2019-02-26T22:14:34.024Z,4.77
2019-02-26T22:17:02.686Z,4.97
2019-02-26T22:19:50.801Z,4.57
2019-02-26T22:22:26.021Z,4.20
2019-02-26T22:25:15.981Z,5.30
2019-02-26T22:27:43.004Z,5.10
2019-02-26T22:30:31.187Z,4.47
2019-02-26T22:33:00.001Z,4.70
2019-02-26T22:41:11.921Z,4.73
2019-02-26T22:43:40.789Z,4.30
2019-02-26T22:46:28.655Z,3.80
2019-02-26T22:48:58.557Z,4.67
2019-02-26T22:51:46.600Z,3.90
2019-02-26T22:54:15.249Z,3.77
2019-02-26T22:56:44.341Z,3.97
2019-02-26T23:02:41.268Z,4.60
2019-02-26T23:05:30.533Z,3.87
2019-02-26T23:07:59.207Z,4.47
2019-02-26T23:10:28.290Z,4.40
2019-02-26T23:12:57.059Z,4.20
2019-02-26T23:15:45.875Z,4.07
2019-02-26T23:18:55.109Z,4.97
2019-02-26T23:24:13.045Z,3.83
2019-02-26T23:26:42.617Z,4.17
2019-02-26T23:29:12.266Z,4.10
2019-02-26T23:32:20.778Z,4.10
2019-02-26T23:35:29.278Z,3.50
2019-02-26T23:40:52.965Z,4.50
2019-02-26T23:43:21.619Z,3.43
2019-02-26T23:46:09.496Z,3.23
2019-02-26T23:48:40.537Z,3.37
2019-02-26T23:51:08.577Z,2.80
2019-02-26T23:53:37.217Z,3.60
2019-02-26T23:56:05.913Z,3.40
2019-02-26T23:58:34.569Z,3.27
